Airfield :
LOGIN :

Register | Disclaimer

   EN    FR    IT 

 










Legend :    VFR   Marginal VFR   IFR   Intensive IFR   Very Intensive IFR
Visi :
Ceiling :
>= 8 km
>= 3000ft
5 to 8 km
1000 to 3000 ft
1500m to 5 km
500 to 1000 ft
800 to 1500m
200 to 500 ft
< 800m
< 200 ft
Symbols :   Thunderstorms  Fog  Heavy snow  Heavy precipitations  Wind > 20 kt
SIGMETs :     Misc.  Thunderstorms  Icing  Turbulence  Mountain Waves  Volcanic Ashes







- Airport Elevation : 1161 ft
- IATA code : RJL


LELO - Logroño-Agoncillo

CURRENT METAR :
  • 180930Z 09013KT 050V120 9999 FEW005 BKN015 10/09 Q1009

EXPIRED METARs :
  • 180900Z 08015KT 9999 FEW005 BKN012 10/09 Q1009
  • 180830Z 08016KT 050V110 8000 FEW005 BKN010 10/09 Q1009
  • 180800Z 08013KT 050V110 8000 FEW005 BKN010 10/09 Q1009
  • 180730Z 08011KT 050V110 7000 FEW005 BKN010 10/10 Q1009
  • 180700Z 08011KT 050V110 7000 FEW005 BKN010 10/10 Q1008

TAF TAF LELO
Valid from the 18 at 09:00 until the 18 at 18:00 UTC


180800Z 1809/1818 10010KT 7000 FEW005 BKN010
TEMPO 1815/1818 BKN014
BECMG 1813/1814 RA BKN025
No reported NOTAMs for that airfield.
1 SIGMET reported for the Madrid FIR (LECM) :
 
Embedded thunderstorms
LECM SIGMET 5 VALID 181000/181200 LEVA
LECM MADRID FIR/UIR EMBD TS OBS AT 1002Z S OF LINE N3731 W00722 - N3724 W00408 TOP FL340 MOV ENE NC=



MET'MAP, your aeronautical weather chart ! - Copyright ORBIFLY December 2007 - Disclaimer

ORBIFLY MET'MAP TEAM :

Programming & Development : Alexandra Zaïnal
Concept & Development : Baudouin d'Aumeries
Co-Development & Prog : Marc-Olivier Méhu
Technical & hardware support : Manuel Goepfert

Contact : metmap@orbifly.com




SOURCES & CREDITS :

   NOAA